createdAt,value
2018-08-12T00:01:01.696Z,0
2018-08-12T00:02:11.926Z,0
2018-08-12T00:03:22.240Z,0
2018-08-12T00:04:33.130Z,0
2018-08-12T00:05:42.791Z,0
2018-08-12T00:06:52.940Z,0
2018-08-12T00:08:03.060Z,0
2018-08-12T00:09:13.185Z,0
2018-08-12T00:10:23.347Z,0
2018-08-12T00:11:33.506Z,0
2018-08-12T00:12:43.650Z,0
2018-08-12T00:13:53.831Z,0
2018-08-12T00:15:03.983Z,0
2018-08-12T00:16:13.908Z,0
2018-08-12T00:17:24.276Z,0
2018-08-12T00:18:34.720Z,0
2018-08-12T00:19:44.848Z,0
2018-08-12T00:20:55.204Z,0
2018-08-12T00:22:05.346Z,0
2018-08-12T00:23:15.521Z,0
2018-08-12T00:24:25.658Z,0
2018-08-12T00:25:35.886Z,0
2018-08-12T00:26:46.053Z,0
2018-08-12T00:27:56.261Z,0
2018-08-12T00:29:07.401Z,0
2018-08-12T00:30:17.582Z,0
2018-08-12T00:31:27.825Z,0
2018-08-12T00:32:38.116Z,0
2018-08-12T00:33:48.326Z,0
2018-08-12T00:34:58.512Z,0
2018-08-12T00:36:08.725Z,0
2018-08-12T00:37:18.854Z,0
2018-08-12T00:38:29.006Z,0
2018-08-12T00:39:39.150Z,0
2018-08-12T00:40:49.361Z,0
2018-08-12T00:41:59.494Z,0
2018-08-12T00:43:09.343Z,0
2018-08-12T00:44:19.524Z,0
2018-08-12T00:45:29.899Z,0
2018-08-12T00:46:40.058Z,0
2018-08-12T00:47:50.205Z,0
2018-08-12T00:49:00.338Z,0
2018-08-12T00:50:10.573Z,0
2018-08-12T00:51:20.200Z,0
2018-08-12T00:52:30.509Z,0
2018-08-12T00:53:40.659Z,0
2018-08-12T00:54:50.844Z,0
2018-08-12T00:56:00.996Z,0
2018-08-12T00:57:11.214Z,0
2018-08-12T00:58:21.400Z,0
2018-08-12T00:59:31.555Z,0
2018-08-12T01:00:41.682Z,0
2018-08-12T01:01:51.809Z,0
2018-08-12T01:03:01.430Z,0
2018-08-12T01:04:11.556Z,0
2018-08-12T01:05:21.712Z,0
2018-08-12T01:06:31.860Z,0
2018-08-12T01:07:42.009Z,0
2018-08-12T01:08:52.166Z,0
2018-08-12T01:10:02.061Z,0
2018-08-12T01:11:12.173Z,0
2018-08-12T01:12:22.046Z,0
2018-08-12T01:13:32.153Z,0
2018-08-12T01:14:42.272Z,0
2018-08-12T01:15:52.056Z,0
2018-08-12T01:17:01.970Z,0
2018-08-12T01:18:11.854Z,0
2018-08-12T01:19:22.055Z,0
2018-08-12T01:20:32.330Z,0
2018-08-12T01:21:42.549Z,0
2018-08-12T01:22:52.414Z,0
2018-08-12T01:24:02.273Z,0
2018-08-12T01:25:12.454Z,0
2018-08-12T01:26:22.801Z,0
2018-08-12T01:27:32.959Z,0
2018-08-12T01:28:43.073Z,0
2018-08-12T01:29:53.234Z,0
2018-08-12T01:31:03.202Z,0
2018-08-12T01:32:13.068Z,0
2018-08-12T01:33:23.251Z,0
2018-08-12T01:34:33.412Z,0
2018-08-12T01:35:43.559Z,0
2018-08-12T01:36:53.739Z,0
2018-08-12T01:38:03.908Z,0
2018-08-12T01:39:14.036Z,0
2018-08-12T01:40:24.190Z,0
2018-08-12T01:41:34.372Z,0
2018-08-12T01:42:44.606Z,0
2018-08-12T01:43:55.017Z,0
2018-08-12T01:45:05.169Z,0
2018-08-12T01:46:15.352Z,0
2018-08-12T01:47:25.521Z,0
2018-08-12T01:48:35.788Z,0
2018-08-12T01:49:45.953Z,0
2018-08-12T01:50:56.162Z,0
2018-08-12T01:52:05.698Z,0
2018-08-12T01:53:15.511Z,0
2018-08-12T01:54:25.616Z,0
2018-08-12T01:55:35.520Z,0
2018-08-12T01:56:45.632Z,0
2018-08-12T01:57:55.558Z,0
2018-08-12T01:59:05.487Z,0
2018-08-12T02:00:15.672Z,0
2018-08-12T02:01:25.828Z,0
2018-08-12T02:02:35.958Z,0
2018-08-12T02:03:46.092Z,0
2018-08-12T02:04:56.222Z,0
2018-08-12T02:06:06.078Z,0
2018-08-12T02:07:16.297Z,0
2018-08-12T02:08:26.450Z,0
2018-08-12T02:09:36.580Z,0
2018-08-12T02:10:46.720Z,0
2018-08-12T02:11:56.679Z,0
2018-08-12T02:13:06.290Z,0
2018-08-12T02:14:16.438Z,0
2018-08-12T02:15:26.556Z,0
2018-08-12T02:16:36.701Z,0
2018-08-12T02:17:46.611Z,0
2018-08-12T02:18:56.770Z,0
2018-08-12T02:20:06.906Z,0
2018-08-12T02:21:17.106Z,0
2018-08-12T02:22:27.234Z,0
2018-08-12T02:23:37.504Z,0
2018-08-12T02:24:47.765Z,0
2018-08-12T02:25:57.957Z,0
2018-08-12T02:27:08.221Z,0
2018-08-12T02:28:17.969Z,0
2018-08-12T02:29:28.195Z,0
2018-08-12T02:30:38.080Z,0
2018-08-12T02:31:48.233Z,0
2018-08-12T02:32:58.420Z,0
2018-08-12T02:34:08.687Z,0
2018-08-12T02:35:18.829Z,0
2018-08-12T02:36:28.953Z,0
2018-08-12T02:37:39.131Z,0
2018-08-12T02:38:49.276Z,0
2018-08-12T02:39:59.410Z,0
2018-08-12T02:41:09.572Z,0
2018-08-12T02:42:19.802Z,0
2018-08-12T02:43:29.924Z,0
2018-08-12T02:44:39.783Z,0
2018-08-12T02:45:49.932Z,0
2018-08-12T02:47:00.146Z,0
2018-08-12T02:48:10.289Z,0
2018-08-12T02:49:20.491Z,0
2018-08-12T02:50:30.747Z,0
2018-08-12T02:51:40.914Z,0
2018-08-12T02:52:50.773Z,0
2018-08-12T02:54:00.904Z,0
2018-08-12T02:55:11.060Z,0
2018-08-12T02:56:21.215Z,0
2018-08-12T02:57:31.453Z,0
2018-08-12T02:58:41.322Z,0
2018-08-12T02:59:51.484Z,0
2018-08-12T03:01:01.374Z,0
2018-08-12T03:02:11.500Z,0
2018-08-12T03:03:22.331Z,0
2018-08-12T03:04:32.527Z,0
2018-08-12T03:05:42.708Z,0
2018-08-12T03:06:52.840Z,0
2018-08-12T03:08:02.729Z,0
2018-08-12T03:09:12.862Z,0
2018-08-12T03:10:23.011Z,0
2018-08-12T03:11:33.188Z,0
2018-08-12T03:12:43.355Z,0
2018-08-12T03:13:53.556Z,0
2018-08-12T03:15:03.931Z,0
2018-08-12T03:16:14.060Z,0
2018-08-12T03:17:24.508Z,0
2018-08-12T03:18:34.690Z,4
2018-08-12T03:19:44.850Z,0
2018-08-12T03:20:54.934Z,0
2018-08-12T03:22:05.067Z,4
2018-08-12T03:23:15.249Z,0
2018-08-12T03:24:25.119Z,4
2018-08-12T03:25:35.326Z,4
2018-08-12T03:26:45.486Z,4
2018-08-12T03:27:55.638Z,8
2018-08-12T03:29:05.752Z,8
2018-08-12T03:30:16.163Z,12
2018-08-12T03:31:26.712Z,12
2018-08-12T03:32:37.827Z,12
2018-08-12T03:33:48.021Z,20
2018-08-12T03:34:58.208Z,20
2018-08-12T03:36:08.362Z,24
2018-08-12T03:37:19.576Z,28
2018-08-12T03:38:29.721Z,32
2018-08-12T03:39:39.920Z,40
2018-08-12T03:40:50.115Z,44
2018-08-12T03:42:00.291Z,52
2018-08-12T03:43:10.697Z,56
2018-08-12T03:44:21.076Z,64
2018-08-12T03:45:30.978Z,72
2018-08-12T03:46:41.100Z,84
2018-08-12T03:47:51.211Z,92
2018-08-12T03:49:01.516Z,104
2018-08-12T03:50:11.634Z,116
2018-08-12T03:51:21.745Z,132
2018-08-12T03:52:31.880Z,144
2018-08-12T03:53:42.021Z,160
2018-08-12T03:54:52.128Z,176
2018-08-12T03:56:02.244Z,192
2018-08-12T03:57:12.371Z,208
2018-08-12T03:58:22.603Z,224
2018-08-12T03:59:32.768Z,244
2018-08-12T04:00:42.920Z,260
2018-08-12T04:01:52.787Z,284
2018-08-12T04:03:02.944Z,300
2018-08-12T04:04:13.138Z,320
2018-08-12T04:05:23.273Z,344
2018-08-12T04:06:33.397Z,364
2018-08-12T04:07:43.533Z,388
2018-08-12T04:08:53.682Z,412
2018-08-12T04:10:03.847Z,444
2018-08-12T04:11:14.246Z,480
2018-08-12T04:12:24.368Z,516
2018-08-12T04:13:34.240Z,552
2018-08-12T04:14:44.401Z,588
2018-08-12T04:15:54.288Z,612
2018-08-12T04:17:04.398Z,640
2018-08-12T04:18:14.521Z,664
2018-08-12T04:19:24.685Z,688
2018-08-12T04:20:34.871Z,712
2018-08-12T04:21:45.074Z,744
2018-08-12T04:22:55.197Z,776
2018-08-12T04:24:05.383Z,808
2018-08-12T04:25:15.509Z,844
2018-08-12T04:26:25.662Z,884
2018-08-12T04:27:35.773Z,920
2018-08-12T04:28:45.621Z,952
2018-08-12T04:29:55.499Z,988
2018-08-12T04:31:05.299Z,1020
2018-08-12T04:32:15.531Z,1048
2018-08-12T04:33:25.753Z,1076
2018-08-12T04:34:35.903Z,1112
2018-08-12T04:35:46.036Z,1156
2018-08-12T04:36:56.153Z,1200
2018-08-12T04:38:06.312Z,1240
2018-08-12T04:39:16.967Z,1284
2018-08-12T04:40:27.155Z,1324
2018-08-12T04:41:38.278Z,1364
2018-08-12T04:42:48.424Z,1400
2018-08-12T04:43:58.546Z,1440
2018-08-12T04:45:08.905Z,1476
2018-08-12T04:46:19.395Z,1512
2018-08-12T04:47:29.509Z,1552
2018-08-12T04:48:39.685Z,1592
2018-08-12T04:49:49.893Z,1632
2018-08-12T04:51:00.026Z,1668
2018-08-12T04:52:10.187Z,1696
2018-08-12T04:53:20.332Z,1724
2018-08-12T04:54:30.454Z,1740
2018-08-12T04:55:40.574Z,1744
2018-08-12T04:56:50.780Z,1744
2018-08-12T04:58:00.929Z,1780
2018-08-12T04:59:10.818Z,1776
2018-08-12T05:00:20.964Z,1816
2018-08-12T05:01:31.130Z,1848
2018-08-12T05:02:41.332Z,1868
2018-08-12T05:03:51.571Z,1900
2018-08-12T05:05:01.580Z,1916
2018-08-12T05:06:11.712Z,1980
2018-08-12T05:07:21.880Z,2036
2018-08-12T05:08:32.075Z,2060
2018-08-12T05:09:42.100Z,2092
2018-08-12T05:10:52.457Z,2124
2018-08-12T05:12:02.667Z,2152
2018-08-12T05:13:12.935Z,2180
2018-08-12T05:14:22.789Z,2212
2018-08-12T05:15:32.650Z,2240
2018-08-12T05:16:42.800Z,2264
2018-08-12T05:17:52.934Z,2288
2018-08-12T05:19:03.050Z,2304
2018-08-12T05:20:13.380Z,2280
2018-08-12T05:21:23.264Z,2204
2018-08-12T05:22:33.594Z,2316
2018-08-12T05:23:43.719Z,2364
2018-08-12T05:24:53.855Z,2468
2018-08-12T05:26:03.986Z,2492
2018-08-12T05:27:13.874Z,2504
2018-08-12T05:28:24.001Z,2528
2018-08-12T05:29:34.123Z,2508
2018-08-12T05:30:44.406Z,2564
2018-08-12T05:31:54.556Z,2516
2018-08-12T05:33:04.798Z,2684
2018-08-12T05:34:14.965Z,2676
2018-08-12T05:35:25.139Z,2688
2018-08-12T05:36:35.526Z,2712
2018-08-12T05:37:45.373Z,2724
2018-08-12T05:38:55.494Z,2692
2018-08-12T05:40:05.614Z,2748
2018-08-12T05:41:15.763Z,2676
2018-08-12T05:42:25.898Z,2776
2018-08-12T05:43:35.756Z,2820
2018-08-12T05:44:45.259Z,2844
2018-08-12T05:45:55.466Z,2892
2018-08-12T05:47:06.571Z,2920
2018-08-12T05:48:16.706Z,2944
2018-08-12T05:49:26.935Z,2996
2018-08-12T05:50:37.172Z,3028
2018-08-12T05:51:47.343Z,3052
2018-08-12T05:52:57.472Z,3056
2018-08-12T05:54:07.743Z,3064
2018-08-12T05:55:18.004Z,3020
2018-08-12T05:56:28.252Z,3128
2018-08-12T05:57:38.722Z,3148
2018-08-12T05:58:48.892Z,3140
2018-08-12T05:59:59.035Z,3084
2018-08-12T06:01:09.162Z,2972
2018-08-12T06:02:19.304Z,3124
2018-08-12T06:03:29.174Z,3280
2018-08-12T06:04:39.374Z,3332
2018-08-12T06:05:49.509Z,3364
2018-08-12T06:06:59.667Z,3396
2018-08-12T06:08:09.624Z,3416
2018-08-12T06:09:19.750Z,3440
2018-08-12T06:10:29.911Z,3496
2018-08-12T06:11:40.178Z,3536
2018-08-12T06:12:50.380Z,3528
2018-08-12T06:14:00.648Z,3632
2018-08-12T06:15:10.878Z,3684
2018-08-12T06:16:21.043Z,3744
2018-08-12T06:17:31.744Z,3780
2018-08-12T06:18:41.774Z,3776
2018-08-12T06:19:51.915Z,3832
2018-08-12T06:21:02.083Z,3948
2018-08-12T06:22:12.276Z,4044
2018-08-12T06:23:22.144Z,4108
2018-08-12T06:24:32.025Z,4112
2018-08-12T06:25:42.331Z,4372
2018-08-12T06:26:52.632Z,4476
2018-08-12T06:28:02.798Z,4608
2018-08-12T06:29:13.069Z,4704
2018-08-12T06:30:23.268Z,4904
2018-08-12T06:31:33.667Z,5052
2018-08-12T06:32:43.586Z,5260
2018-08-12T06:33:53.727Z,5412
2018-08-12T06:35:04.827Z,5464
2018-08-12T06:36:14.757Z,5508
2018-08-12T06:37:24.911Z,5592
2018-08-12T06:38:35.288Z,5584
2018-08-12T06:39:45.536Z,5788
2018-08-12T06:40:55.604Z,5812
2018-08-12T06:42:05.762Z,5792
2018-08-12T06:43:15.655Z,5768
2018-08-12T06:44:25.837Z,5712
2018-08-12T06:45:36.105Z,5744
2018-08-12T06:46:46.263Z,5964
2018-08-12T06:47:56.436Z,6168
2018-08-12T06:49:06.566Z,6032
2018-08-12T06:50:16.716Z,6080
2018-08-12T06:51:26.842Z,5956
2018-08-12T06:52:37.022Z,5716
2018-08-12T06:53:47.165Z,5544
2018-08-12T06:54:57.396Z,5596
2018-08-12T06:56:08.505Z,5532
2018-08-12T06:57:18.910Z,5588
2018-08-12T06:58:29.050Z,5648
2018-08-12T06:59:39.317Z,5616
2018-08-12T07:00:49.531Z,5776
2018-08-12T07:01:59.684Z,6024
2018-08-12T07:03:09.821Z,6312
2018-08-12T07:04:20.009Z,6532
2018-08-12T07:05:30.160Z,6728
2018-08-12T07:06:40.304Z,6748
2018-08-12T07:07:51.451Z,6836
2018-08-12T07:09:01.620Z,6832
2018-08-12T07:10:11.791Z,6924
2018-08-12T07:11:21.963Z,7132
2018-08-12T07:12:32.415Z,7420
2018-08-12T07:13:42.612Z,7604
2018-08-12T07:14:52.738Z,7628
2018-08-12T07:16:02.871Z,7800
2018-08-12T07:17:13.163Z,7916
2018-08-12T07:18:23.335Z,7960
2018-08-12T07:19:33.534Z,8016
2018-08-12T07:20:43.678Z,7972
2018-08-12T07:21:53.932Z,7900
2018-08-12T07:23:03.838Z,7976
2018-08-12T07:24:13.968Z,8028
2018-08-12T07:25:24.116Z,8020
2018-08-12T07:26:34.362Z,8096
2018-08-12T07:27:44.649Z,8408
2018-08-12T07:28:54.844Z,8620
2018-08-12T07:30:05.051Z,8680
2018-08-12T07:31:15.329Z,9048
2018-08-12T07:32:24.612Z,9260
2018-08-12T07:33:34.832Z,9348
2018-08-12T07:34:44.699Z,9360
2018-08-12T07:35:54.845Z,9348
2018-08-12T07:37:05.017Z,9348
2018-08-12T07:38:14.899Z,9388
2018-08-12T07:39:24.532Z,9488
2018-08-12T07:40:34.512Z,9568
2018-08-12T07:41:44.647Z,9640
2018-08-12T07:42:55.779Z,9604
2018-08-12T07:44:05.965Z,9592
2018-08-12T07:45:16.095Z,9660
2018-08-12T07:46:26.288Z,9596
2018-08-12T07:47:36.188Z,9352
2018-08-12T07:48:46.272Z,9044
2018-08-12T07:49:56.683Z,8940
2018-08-12T07:51:06.813Z,8904
2018-08-12T07:52:16.955Z,8736
2018-08-12T07:53:27.123Z,8608
2018-08-12T07:54:37.272Z,8460
2018-08-12T07:55:47.622Z,8552
2018-08-12T07:56:57.607Z,8944
2018-08-12T07:58:07.564Z,9344
2018-08-12T07:59:17.764Z,9412
2018-08-12T08:00:27.902Z,9792
2018-08-12T08:01:38.059Z,9936
2018-08-12T08:02:48.284Z,9996
2018-08-12T08:03:58.496Z,9824
2018-08-12T08:05:08.750Z,9552
2018-08-12T08:06:19.338Z,9940
2018-08-12T08:07:29.299Z,9688
2018-08-12T08:08:39.586Z,9672
2018-08-12T08:09:49.760Z,10136
2018-08-12T08:10:59.916Z,10440
2018-08-12T08:12:09.699Z,10240
2018-08-12T08:13:19.909Z,10368
2018-08-12T08:14:30.071Z,10264
2018-08-12T08:15:40.260Z,10176
2018-08-12T08:16:50.411Z,10276
2018-08-12T08:18:00.639Z,10444
2018-08-12T08:19:11.751Z,10460
2018-08-12T08:20:22.109Z,10876
2018-08-12T08:21:32.369Z,11168
2018-08-12T08:22:42.544Z,11540
2018-08-12T08:23:52.691Z,11856
2018-08-12T08:25:02.822Z,12200
2018-08-12T08:26:12.974Z,12728
2018-08-12T08:27:23.169Z,13200
2018-08-12T08:28:33.389Z,13924
2018-08-12T08:29:43.514Z,14592
2018-08-12T08:30:53.699Z,15040
2018-08-12T08:32:04.985Z,15456
2018-08-12T08:33:14.983Z,15872
2018-08-12T08:34:25.130Z,16256
2018-08-12T08:35:35.280Z,16000
2018-08-12T08:36:45.416Z,15840
2018-08-12T08:37:55.617Z,16736
2018-08-12T08:39:05.867Z,17248
2018-08-12T08:40:16.024Z,15968
2018-08-12T08:41:26.247Z,19680
2018-08-12T08:42:36.475Z,34208
2018-08-12T08:43:46.309Z,42432
2018-08-12T08:44:56.481Z,39136
2018-08-12T08:46:06.646Z,38336
2018-08-12T08:47:16.831Z,37696
2018-08-12T08:48:27.024Z,33920
2018-08-12T08:49:37.364Z,34976
2018-08-12T08:50:47.885Z,36128
2018-08-12T08:51:58.275Z,33248
2018-08-12T08:53:08.486Z,43520
2018-08-12T08:54:18.690Z,55616
2018-08-12T08:55:28.854Z,53792
2018-08-12T08:56:39.058Z,50848
2018-08-12T08:57:49.267Z,54208
2018-08-12T08:58:59.423Z,52032
2018-08-12T09:00:09.348Z,50240
2018-08-12T09:01:19.691Z,51840
2018-08-12T09:02:30.065Z,51392
2018-08-12T09:03:40.243Z,53856
2018-08-12T09:04:50.472Z,48032
2018-08-12T09:06:00.681Z,37920
2018-08-12T09:07:10.852Z,27808
2018-08-12T09:08:21.655Z,32416
2018-08-12T09:09:32.338Z,34208
2018-08-12T09:10:42.214Z,36448
2018-08-12T09:11:52.430Z,39712
2018-08-12T09:13:02.692Z,55680
2018-08-12T09:14:12.865Z,59168
2018-08-12T09:15:22.763Z,56288
2018-08-12T09:16:32.930Z,53728
2018-08-12T09:17:43.123Z,50112
2018-08-12T09:18:53.280Z,49216
2018-08-12T09:20:03.189Z,48544
2018-08-12T09:21:13.400Z,58144
2018-08-12T09:22:23.553Z,59456
2018-08-12T09:23:33.536Z,50816
2018-08-12T09:24:43.729Z,59808
2018-08-12T09:25:54.021Z,68416
2018-08-12T09:27:04.244Z,63264
2018-08-12T09:28:14.547Z,71328
2018-08-12T09:29:24.724Z,66464
2018-08-12T09:30:34.721Z,58592
2018-08-12T09:31:44.912Z,71840
2018-08-12T09:32:55.104Z,68256
2018-08-12T09:34:05.292Z,59168
2018-08-12T09:35:15.469Z,65280
2018-08-12T09:36:25.712Z,56832
2018-08-12T09:37:35.937Z,60096
2018-08-12T09:38:46.108Z,71104
2018-08-12T09:39:56.266Z,60224
2018-08-12T09:41:07.553Z,56576
2018-08-12T09:42:17.807Z,70016
2018-08-12T09:43:28.014Z,68384
2018-08-12T09:44:38.230Z,62656
2018-08-12T09:45:48.429Z,63552
2018-08-12T09:46:58.664Z,57120
2018-08-12T09:48:08.939Z,64160
2018-08-12T09:49:19.200Z,64128
2018-08-12T09:50:29.023Z,60192
2018-08-12T09:51:39.720Z,74784
2018-08-12T09:52:50.440Z,67136
2018-08-12T09:54:00.635Z,61056
2018-08-12T09:55:10.812Z,72832
2018-08-12T09:56:21.031Z,75776
2018-08-12T09:57:31.323Z,70816
2018-08-12T09:58:41.671Z,73920
2018-08-12T09:59:51.946Z,71520
2018-08-12T10:01:02.184Z,62464
2018-08-12T10:02:12.609Z,63872
2018-08-12T10:03:22.810Z,73568
2018-08-12T10:04:33.001Z,76864
2018-08-12T10:05:43.192Z,73344
2018-08-12T10:06:53.403Z,76128
2018-08-12T10:08:03.618Z,74592
2018-08-12T10:09:13.546Z,73696
2018-08-12T10:10:23.721Z,76416
2018-08-12T10:11:33.943Z,82016
2018-08-12T10:12:43.902Z,74176
2018-08-12T10:13:54.191Z,75488
2018-08-12T10:15:04.482Z,87392
2018-08-12T10:16:14.681Z,86080
2018-08-12T10:17:25.052Z,85248
2018-08-12T10:18:35.210Z,81536
2018-08-12T10:19:45.413Z,78176
2018-08-12T10:20:55.608Z,81984
2018-08-12T10:22:05.868Z,79936
2018-08-12T10:23:16.770Z,70016
2018-08-12T10:24:26.981Z,77632
2018-08-12T10:25:37.154Z,81632
2018-08-12T10:26:47.337Z,82336
2018-08-12T10:27:57.578Z,82080
2018-08-12T10:29:07.897Z,66624
2018-08-12T10:30:18.289Z,70816
2018-08-12T10:31:28.495Z,83776
2018-08-12T10:32:38.680Z,82240
2018-08-12T10:33:48.920Z,79040
2018-08-12T10:34:59.180Z,88032
2018-08-12T10:36:09.420Z,85120
2018-08-12T10:37:19.671Z,78176
2018-08-12T10:38:30.862Z,78240
2018-08-12T10:39:41.030Z,83008
2018-08-12T10:40:52.317Z,73312
2018-08-12T10:42:02.512Z,68448
2018-08-12T10:43:12.706Z,70336
2018-08-12T10:44:22.853Z,46112
2018-08-12T10:45:33.335Z,84192
2018-08-12T10:46:43.258Z,78560
2018-08-12T10:47:53.621Z,70720
2018-08-12T10:49:03.576Z,78752
2018-08-12T10:50:13.809Z,85184
2018-08-12T10:51:23.749Z,82240
2018-08-12T10:52:33.679Z,82208
2018-08-12T10:53:43.876Z,77536
2018-08-12T10:54:54.080Z,74528
2018-08-12T10:56:04.322Z,83104
2018-08-12T10:57:14.523Z,76640
2018-08-12T10:58:24.753Z,68352
2018-08-12T10:59:35.313Z,71648
2018-08-12T11:00:45.523Z,73984
2018-08-12T11:01:55.736Z,62272
2018-08-12T11:03:05.652Z,68384
2018-08-12T11:04:15.826Z,65024
2018-08-12T11:05:26.037Z,61664
2018-08-12T11:06:36.303Z,77152
2018-08-12T11:07:50.093Z,83232
2018-08-12T11:09:03.022Z,78880
2018-08-12T11:10:14.195Z,86112
2018-08-12T11:11:26.292Z,90944
2018-08-12T11:12:36.770Z,77312
2018-08-12T11:13:47.034Z,75424
2018-08-12T11:14:57.541Z,88000
2018-08-12T11:16:07.847Z,81088
2018-08-12T11:17:18.072Z,77856
2018-08-12T11:18:28.295Z,77696
2018-08-12T11:19:38.528Z,77984
2018-08-12T11:20:48.759Z,79776
2018-08-12T11:21:58.927Z,83232
2018-08-12T11:23:09.121Z,81632
2018-08-12T11:24:19.369Z,79648
2018-08-12T11:25:29.624Z,82688
2018-08-12T11:26:39.829Z,82336
2018-08-12T11:27:50.022Z,76480
2018-08-12T11:29:00.082Z,75584
2018-08-12T11:30:10.354Z,78176
2018-08-12T11:31:20.427Z,70816
2018-08-12T11:32:30.626Z,70144
2018-08-12T11:33:40.947Z,73632
2018-08-12T11:34:51.439Z,71008
2018-08-12T11:36:01.474Z,76480
2018-08-12T11:37:12.719Z,80640
2018-08-12T11:38:22.977Z,82144
2018-08-12T11:39:33.221Z,78976
2018-08-12T11:40:45.893Z,78656
2018-08-12T11:41:56.122Z,79808
2018-08-12T11:43:07.301Z,85632
2018-08-12T11:44:17.508Z,83328
2018-08-12T11:45:27.746Z,67488
2018-08-12T11:46:37.967Z,69664
2018-08-12T11:47:49.140Z,84512
2018-08-12T11:48:59.358Z,80160
2018-08-12T11:50:09.749Z,73248
2018-08-12T11:51:19.951Z,77760
2018-08-12T11:52:30.150Z,80128
2018-08-12T11:53:41.584Z,72128
2018-08-12T11:54:51.869Z,74784
2018-08-12T11:56:02.176Z,84704
2018-08-12T11:57:12.512Z,81088
2018-08-12T11:58:22.717Z,70112
2018-08-12T11:59:32.945Z,77984
2018-08-12T12:00:43.205Z,91808
2018-08-12T12:01:53.455Z,83104
2018-08-12T12:03:03.690Z,68352
2018-08-12T12:04:14.155Z,71648
2018-08-12T12:05:24.667Z,80352
2018-08-12T12:06:35.153Z,80256
2018-08-12T12:07:45.397Z,79712
2018-08-12T12:08:55.612Z,82272
2018-08-12T12:10:05.858Z,77216
2018-08-12T12:11:15.864Z,71424
2018-08-12T12:12:26.216Z,80704
2018-08-12T12:13:36.542Z,84832
2018-08-12T12:14:46.856Z,73792
2018-08-12T12:15:57.035Z,69696
2018-08-12T12:17:07.230Z,83488
2018-08-12T12:18:17.204Z,88768
2018-08-12T12:19:27.600Z,82560
2018-08-12T12:20:38.110Z,78592
2018-08-12T12:21:48.500Z,81568
2018-08-12T12:22:58.735Z,78496
2018-08-12T12:24:08.992Z,75392
2018-08-12T12:25:19.301Z,72064
2018-08-12T12:26:29.227Z,73152
2018-08-12T12:27:39.459Z,78432
2018-08-12T12:28:49.381Z,82560
2018-08-12T12:29:59.667Z,77312
2018-08-12T12:31:09.872Z,70720
2018-08-12T12:32:20.121Z,74528
2018-08-12T12:33:30.357Z,88608
2018-08-12T12:34:40.653Z,90624
2018-08-12T12:35:50.958Z,75488
2018-08-12T12:37:01.281Z,64000
2018-08-12T12:38:13.469Z,74720
2018-08-12T12:39:23.750Z,89728
2018-08-12T12:40:34.004Z,84608
2018-08-12T12:41:44.034Z,72928
2018-08-12T12:42:54.309Z,71424
2018-08-12T12:44:04.676Z,74176
2018-08-12T12:45:14.910Z,73696
2018-08-12T12:46:25.181Z,73856
2018-08-12T12:47:35.382Z,75104
2018-08-12T12:48:45.697Z,76928
2018-08-12T12:49:55.979Z,75200
2018-08-12T12:51:06.251Z,75520
2018-08-12T12:52:16.484Z,78112
2018-08-12T12:53:26.830Z,75776
2018-08-12T12:54:37.143Z,75936
2018-08-12T12:55:47.678Z,73184
2018-08-12T12:56:57.932Z,72320
2018-08-12T12:58:08.377Z,68256
2018-08-12T12:59:18.975Z,66592
2018-08-12T13:00:30.335Z,70656
2018-08-12T13:01:41.329Z,74016
2018-08-12T13:02:51.657Z,74272
2018-08-12T13:04:05.556Z,74208
2018-08-12T13:05:15.739Z,72768
2018-08-12T13:06:25.941Z,69536
2018-08-12T13:07:36.158Z,60576
2018-08-12T13:08:46.396Z,63104
2018-08-12T13:09:56.744Z,63104
2018-08-12T13:11:07.005Z,63904
2018-08-12T13:12:17.228Z,66656
2018-08-12T13:13:27.480Z,67584
2018-08-12T13:14:37.685Z,65504
2018-08-12T13:15:48.192Z,54208
2018-08-12T13:16:58.420Z,58048
2018-08-12T13:18:08.813Z,59680
2018-08-12T13:19:19.053Z,60704
2018-08-12T13:20:29.378Z,59648
2018-08-12T13:21:39.722Z,43296
2018-08-12T13:22:49.988Z,25472
2018-08-12T13:24:00.312Z,61056
2018-08-12T13:25:10.971Z,61760
2018-08-12T13:26:21.333Z,64640
2018-08-12T13:27:31.667Z,65440
2018-08-12T13:28:41.963Z,65024
2018-08-12T13:29:52.244Z,63424
2018-08-12T13:31:02.583Z,64704
2018-08-12T13:32:12.864Z,61408
2018-08-12T13:33:23.207Z,56064
2018-08-12T13:34:33.463Z,56416
2018-08-12T13:35:43.718Z,59744
2018-08-12T13:36:54.093Z,62400
2018-08-12T13:38:04.379Z,65024
2018-08-12T13:39:14.689Z,59424
2018-08-12T13:40:24.919Z,49600
2018-08-12T13:41:35.275Z,50624
2018-08-12T13:42:45.607Z,58976
2018-08-12T13:43:55.903Z,61632
2018-08-12T13:45:06.267Z,56032
2018-08-12T13:46:17.544Z,54816
2018-08-12T13:47:27.950Z,55424
2018-08-12T13:48:38.284Z,53664
2018-08-12T13:49:48.716Z,52864
2018-08-12T13:50:59.059Z,58144
2018-08-12T13:52:09.404Z,55392
2018-08-12T13:53:20.221Z,52800
2018-08-12T13:54:30.622Z,49632
2018-08-12T13:55:40.865Z,44768
2018-08-12T13:56:51.146Z,43200
2018-08-12T13:58:01.362Z,39520
2018-08-12T13:59:11.571Z,50496
2018-08-12T14:00:21.814Z,52704
2018-08-12T14:01:32.108Z,48480
2018-08-12T14:02:42.537Z,51648
2018-08-12T14:03:52.570Z,48640
2018-08-12T14:05:02.808Z,48000
2018-08-12T14:06:13.071Z,47968
2018-08-12T14:07:23.332Z,38880
2018-08-12T14:08:33.599Z,44608
2018-08-12T14:09:43.972Z,45568
2018-08-12T14:10:54.624Z,49344
2018-08-12T14:12:04.958Z,53504
2018-08-12T14:13:15.273Z,54944
2018-08-12T14:14:25.518Z,55424
2018-08-12T14:15:35.674Z,53056
2018-08-12T14:16:45.956Z,47680
2018-08-12T14:17:55.951Z,51136
2018-08-12T14:19:06.249Z,48576
2018-08-12T14:20:16.639Z,49440
2018-08-12T14:21:27.520Z,40064
2018-08-12T14:22:37.888Z,38144
2018-08-12T14:23:49.119Z,38496
2018-08-12T14:24:59.354Z,36032
2018-08-12T14:26:09.576Z,37696
2018-08-12T14:27:19.821Z,36992
2018-08-12T14:28:30.090Z,41248
2018-08-12T14:29:40.785Z,44064
2018-08-12T14:30:51.084Z,45056
2018-08-12T14:32:01.347Z,37248
2018-08-12T14:33:11.656Z,33024
2018-08-12T14:34:21.982Z,33312
2018-08-12T14:35:32.238Z,42144
2018-08-12T14:36:42.551Z,38560
2018-08-12T14:37:53.416Z,47680
2018-08-12T14:39:03.960Z,44704
2018-08-12T14:40:14.281Z,39808
2018-08-12T14:41:24.286Z,42336
2018-08-12T14:42:34.570Z,42912
2018-08-12T14:43:45.484Z,47232
2018-08-12T14:44:55.675Z,46272
2018-08-12T14:46:05.928Z,42272
2018-08-12T14:47:16.146Z,47072
2018-08-12T14:48:26.175Z,50336
2018-08-12T14:49:37.201Z,44640
2018-08-12T14:50:47.421Z,39712
2018-08-12T14:51:57.627Z,42816
2018-08-12T14:53:07.843Z,43872
2018-08-12T14:54:18.031Z,38496
2018-08-12T14:55:28.256Z,41376
2018-08-12T14:56:38.498Z,41760
2018-08-12T14:57:48.933Z,42560
2018-08-12T14:58:59.628Z,40832
2018-08-12T15:00:09.865Z,41728
2018-08-12T15:01:20.095Z,37952
2018-08-12T15:02:30.317Z,23904
2018-08-12T15:03:40.549Z,23040
2018-08-12T15:04:50.752Z,24576
2018-08-12T15:06:01.053Z,25824
2018-08-12T15:07:11.585Z,13632
2018-08-12T15:08:21.626Z,13352
2018-08-12T15:09:31.866Z,26784
2018-08-12T15:10:42.098Z,31136
2018-08-12T15:11:52.382Z,33920
2018-08-12T15:13:02.588Z,25952
2018-08-12T15:14:12.838Z,15840
2018-08-12T15:15:23.463Z,12120
2018-08-12T15:16:33.997Z,10860
2018-08-12T15:17:44.334Z,11740
2018-08-12T15:18:54.640Z,22720
2018-08-12T15:20:04.906Z,20256
2018-08-12T15:21:15.211Z,28832
2018-08-12T15:22:25.340Z,17824
2018-08-12T15:23:35.833Z,16160
2018-08-12T15:24:46.103Z,24352
2018-08-12T15:25:56.351Z,26528
2018-08-12T15:27:06.593Z,30432
2018-08-12T15:28:16.856Z,30720
2018-08-12T15:29:27.878Z,33056
2018-08-12T15:30:37.571Z,33856
2018-08-12T15:31:47.837Z,35904
2018-08-12T15:32:58.081Z,32032
2018-08-12T15:34:09.276Z,30720
2018-08-12T15:35:19.525Z,23040
2018-08-12T15:36:29.924Z,18464
2018-08-12T15:37:40.149Z,13632
2018-08-12T15:38:50.469Z,11468
2018-08-12T15:40:00.785Z,10212
2018-08-12T15:41:10.844Z,9292
2018-08-12T15:42:21.590Z,8804
2018-08-12T15:43:31.892Z,8460